Private Wetterstation Sandau
Wetterdaten: Woche 30.07.12 - 05.08.12 (KW31)
Datum Zeit Temp. A. Feuchte A. Luftdruck Regen Wind Richtung Taupunkt Windchill
30.07.2012 02:00 14,7 C 77 % 1015,5 hPa 0,0 l/m 4,5 km/h (1 Bft) W 10,7 C 14,7 C
30.07.2012 03:00 14,0 C 79 % 1015,6 hPa 0,0 l/m 1,2 km/h (1 Bft) W 10,4 C 14,0 C
30.07.2012 04:00 13,1 C 82 % 1015,7 hPa 0,0 l/m 1,7 km/h (1 Bft) S 10,2 C 13,1 C
30.07.2012 05:00 12,6 C 84 % 1015,9 hPa 0,0 l/m 2,3 km/h (1 Bft) S 10,0 C 12,6 C
30.07.2012 06:00 14,3 C 82 % 1015,9 hPa 0,0 l/m 2,5 km/h (1 Bft) SO 11,2 C 14,3 C
30.07.2012 07:00 17,9 C 70 % 1016,1 hPa 0,0 l/m 4,0 km/h (1 Bft) S-SO 12,4 C 17,9 C
30.07.2012 08:00 18,8 C 67 % 1016,2 hPa 0,0 l/m 3,8 km/h (1 Bft) SO 12,5 C 18,8 C
30.07.2012 09:00 20,4 C 61 % 1016,1 hPa 0,0 l/m 7,4 km/h (2 Bft) S-SW 12,7 C 20,4 C
30.07.2012 10:00 21,8 C 53 % 1015,8 hPa 0,0 l/m 10,4 km/h (2 Bft) S 11,8 C 21,8 C
30.07.2012 11:00 21,7 C 52 % 1015,7 hPa 0,0 l/m 13,9 km/h (3 Bft) W-SW 11,2 C 21,7 C
30.07.2012 12:00 18,6 C 66 % 1016,1 hPa 0,5 l/m 11,9 km/h (2 Bft) W-SW 12,0 C 18,6 C
30.07.2012 13:00 19,3 C 68 % 1016,0 hPa 0,0 l/m 10,4 km/h (2 Bft) W-SW 13,1 C 19,3 C
30.07.2012 14:00 21,2 C 58 % 1015,7 hPa 0,0 l/m 7,7 km/h (2 Bft) W-SW 12,7 C 21,2 C
30.07.2012 15:00 21,9 C 53 % 1015,7 hPa 0,0 l/m 9,6 km/h (2 Bft) W 11,8 C 21,9 C
30.07.2012 16:00 22,5 C 47 % 1015,5 hPa 0,0 l/m 9,2 km/h (2 Bft) W-SW 10,6 C 22,5 C
30.07.2012 17:00 22,3 C 45 % 1015,7 hPa 0,0 l/m 13,9 km/h (3 Bft) W-SW 9,8 C 22,3 C
30.07.2012 18:00 21,4 C 46 % 1015,9 hPa 0,0 l/m 11,7 km/h (2 Bft) SW 9,2 C 21,4 C
30.07.2012 19:00 20,7 C 46 % 1016,4 hPa 0,0 l/m 13,5 km/h (3 Bft) W 8,8 C 20,7 C
30.07.2012 20:00 17,0 C 55 % 1017,1 hPa 0,0 l/m 5,4 km/h (1 Bft) W-SW 7,8 C 17,0 C
30.07.2012 21:00 15,3 C 62 % 1017,6 hPa 0,0 l/m 0,5 km/h (0 Bft) W-SW 8,1 C 15,3 C
30.07.2012 22:00 13,8 C 68 % 1017,9 hPa 0,0 l/m 1,4 km/h (1 Bft) S 8,1 C 13,8 C
30.07.2012 23:00 13,1 C 72 % 1018,1 hPa 0,0 l/m 2,8 km/h (1 Bft) S-SO 8,1 C 13,1 C
31.07.2012 00:00 12,5 C 76 % 1017,9 hPa 0,0 l/m 0,5 km/h (0 Bft) SO 8,4 C 12,5 C
31.07.2012 01:00 12,7 C 77 % 1018,0 hPa 0,0 l/m 2,6 km/h (1 Bft) S-SO 8,8 C 12,7 C
31.07.2012 02:00 12,4 C 79 % 1018,2 hPa 0,0 l/m 2,8 km/h (1 Bft) S 8,7 C 12,4 C
31.07.2012 03:00 12,3 C 79 % 1018,2 hPa 0,0 l/m 2,1 km/h (1 Bft) S-SO 8,9 C 12,3 C
31.07.2012 04:00 12,2 C 80 % 1018,2 hPa 0,0 l/m 1,9 km/h (1 Bft) S 8,8 C 12,2 C
31.07.2012 05:00 11,7 C 81 % 1018,4 hPa 0,0 l/m 0,9 km/h (0 Bft) S-SO 8,5 C 11,7 C
31.07.2012 06:00 13,4 C 79 % 1018,5 hPa 0,0 l/m 1,3 km/h (1 Bft) S-SO 9,7 C 13,4 C
31.07.2012 07:00 16,9 C 68 % 1018,9 hPa 0,0 l/m 2,7 km/h (1 Bft) S-SO 10,9 C 16,9 C
31.07.2012 08:00 17,9 C 63 % 1019,0 hPa 0,0 l/m 6,3 km/h (2 Bft) SW 10,8 C 17,9 C
31.07.2012 09:00 19,2 C 57 % 1018,9 hPa 0,0 l/m 7,1 km/h (2 Bft) W-SW 10,6 C 19,2 C
31.07.2012 10:00 20,6 C 50 % 1019,0 hPa 0,0 l/m 7,2 km/h (2 Bft) W-SW 9,9 C 20,6 C
31.07.2012 11:00 21,9 C 45 % 1018,9 hPa 0,0 l/m 9,4 km/h (2 Bft) W-SW 9,3 C 21,9 C
31.07.2012 12:00 21,1 C 47 % 1018,9 hPa 0,0 l/m 7,3 km/h (2 Bft) W-SW 9,2 C 21,1 C
31.07.2012 13:00 21,4 C 47 % 1018,6 hPa 0,0 l/m 9,9 km/h (2 Bft) W-SW 9,7 C 21,4 C
31.07.2012 14:00 21,9 C 44 % 1018,6 hPa 0,0 l/m 10,5 km/h (2 Bft) W-SW 9,1 C 21,9 C
31.07.2012 15:00 21,1 C 46 % 1018,7 hPa 0,0 l/m 10,2 km/h (2 Bft) W-SW 9,0 C 21,1 C
31.07.2012 16:00 21,5 C 46 % 1018,8 hPa 0,0 l/m 8,6 km/h (2 Bft) W-SW 9,2 C 21,5 C
31.07.2012 17:00 20,8 C 47 % 1018,5 hPa 0,0 l/m 4,3 km/h (1 Bft) SW 9,2 C 20,8 C
31.07.2012 18:00 20,0 C 50 % 1018,4 hPa 0,0 l/m 4,0 km/h (1 Bft) SW 9,3 C 20,0 C
31.07.2012 19:00 19,3 C 54 % 1018,5 hPa 0,0 l/m 1,2 km/h (1 Bft) S-SW 9,7 C 19,3 C
31.07.2012 20:00 18,3 C 60 % 1018,8 hPa 0,0 l/m 2,0 km/h (1 Bft) W-SW 10,4 C 18,3 C
31.07.2012 21:00 17,4 C 64 % 1019,1 hPa 0,0 l/m 0,5 km/h (0 Bft) N-NO 10,5 C 17,4 C
31.07.2012 22:00 17,0 C 65 % 1019,4 hPa 0,0 l/m 2,5 km/h (1 Bft) O-NO 10,4 C 17,0 C
31.07.2012 23:00 16,7 C 67 % 1019,5 hPa 0,0 l/m 2,6 km/h (1 Bft) O-NO 10,5 C 16,7 C
01.08.2012 00:00 16,5 C 69 % 1019,6 hPa 0,0 l/m 1,5 km/h (1 Bft) O-NO 10,8 C 16,5 C
01.08.2012 01:00 16,2 C 71 % 1019,5 hPa 0,0 l/m 0,7 km/h (0 Bft) O-SO 11,0 C 16,2 C
01.08.2012 02:00 16,0 C 72 % 1019,5 hPa 0,0 l/m 2,1 km/h (1 Bft) SO 11,0 C 16,0 C
01.08.2012 03:00 15,8 C 73 % 1019,4 hPa 0,0 l/m 3,1 km/h (1 Bft) O-NO 11,1 C 15,8 C
01.08.2012 04:00 15,4 C 74 % 1019,2 hPa 0,0 l/m 3,9 km/h (1 Bft) O 10,9 C 15,4 C
01.08.2012 05:00 14,9 C 77 % 1019,1 hPa 0,0 l/m 2,6 km/h (1 Bft) SO 10,8 C 14,9 C
01.08.2012 06:00 15,0 C 78 % 1019,2 hPa 0,0 l/m 2,8 km/h (1 Bft) SO 11,1 C 15,0 C
01.08.2012 07:00 16,0 C 75 % 1019,3 hPa 0,0 l/m 4,8 km/h (1 Bft) O-SO 11,6 C 16,0 C
01.08.2012 08:00 17,4 C 71 % 1019,3 hPa 0,0 l/m 6,0 km/h (2 Bft) S-SO 12,0 C 17,4 C
01.08.2012 09:00 20,2 C 62 % 1019,2 hPa 0,0 l/m 6,4 km/h (2 Bft) SO 12,7 C 20,2 C
01.08.2012 10:00 21,5 C 59 % 1018,8 hPa 0,0 l/m 3,9 km/h (1 Bft) SO 13,1 C 21,5 C
01.08.2012 11:00 24,4 C 49 % 1018,6 hPa 0,0 l/m 4,2 km/h (1 Bft) SO 13,1 C 24,4 C
01.08.2012 12:00 26,0 C 45 % 1018,3 hPa 0,0 l/m 2,4 km/h (1 Bft) S-SW 13,0 C 26,0 C
01.08.2012 13:00 27,3 C 42 % 1017,9 hPa 0,0 l/m 3,5 km/h (1 Bft) S 13,3 C 27,3 C
01.08.2012 14:00 28,1 C 41 % 1017,6 hPa 0,0 l/m 7,1 km/h (2 Bft) SO 13,4 C 28,1 C
01.08.2012 15:00 28,8 C 40 % 1017,0 hPa 0,0 l/m 6,7 km/h (2 Bft) S-SO 13,6 C 28,8 C
01.08.2012 16:00 29,2 C 38 % 1016,5 hPa 0,0 l/m 6,4 km/h (2 Bft) O 13,4 C 29,2 C
01.08.2012 17:00 28,1 C 39 % 1015,9 hPa 0,0 l/m 6,0 km/h (2 Bft) O-NO 12,9 C 28,1 C
01.08.2012 18:00 27,4 C 41 % 1015,2 hPa 0,0 l/m 7,0 km/h (2 Bft) SO 12,9 C 27,4 C
01.08.2012 19:00 26,6 C 43 % 1014,9 hPa 0,0 l/m 7,2 km/h (2 Bft) SO 13,0 C 26,6 C
01.08.2012 20:00 24,4 C 50 % 1014,8 hPa 0,0 l/m 4,7 km/h (1 Bft) SO 13,2 C 24,4 C
01.08.2012 21:00 22,3 C 55 % 1015,0 hPa 0,0 l/m 4,1 km/h (1 Bft) O-SO 12,8 C 22,3 C
01.08.2012 22:00 20,8 C 59 % 1014,8 hPa 0,0 l/m 4,1 km/h (1 Bft) SO 12,6 C 20,8 C
01.08.2012 23:00 19,6 C 63 % 1014,6 hPa 0,0 l/m 5,2 km/h (1 Bft) O 12,3 C 19,6 C
02.08.2012 00:00 18,6 C 66 % 1014,5 hPa 0,0 l/m 3,5 km/h (1 Bft) O-SO 12,1 C 18,6 C
02.08.2012 01:00 17,9 C 69 % 1014,1 hPa 0,0 l/m 5,1 km/h (1 Bft) O-SO 12,0 C 17,9 C
02.08.2012 02:00 17,5 C 71 % 1013,7 hPa 0,0 l/m 6,2 km/h (2 Bft) O 12,2 C 17,5 C
02.08.2012 03:00 17,2 C 74 % 1013,3 hPa 0,0 l/m 4,4 km/h (1 Bft) O-SO 12,5 C 17,2 C
02.08.2012 04:00 16,8 C 76 % 1012,8 hPa 0,0 l/m 2,9 km/h (1 Bft) O-SO 12,6 C 16,8 C
02.08.2012 05:00 16,3 C 78 % 1012,6 hPa 0,0 l/m 2,9 km/h (1 Bft) O-SO 12,5 C 16,3 C
02.08.2012 06:00 17,5 C 77 % 1012,3 hPa 0,0 l/m 5,7 km/h (1 Bft) O-SO 13,4 C 17,5 C
02.08.2012 07:00 19,4 C 73 % 1011,7 hPa 0,0 l/m 9,7 km/h (2 Bft) O-SO 14,4 C 19,4 C
02.08.2012 08:00 21,5 C 69 % 1011,3 hPa 0,0 l/m 6,9 km/h (2 Bft) SO 15,4 C 21,5 C
02.08.2012 09:00 24,4 C 61 % 1010,9 hPa 0,0 l/m 8,3 km/h (2 Bft) SO 16,3 C 24,4 C
02.08.2012 10:00 26,2 C 56 % 1011,2 hPa 0,0 l/m 5,4 km/h (1 Bft) S-SW 16,6 C 26,2 C
02.08.2012 11:00 27,6 C 52 % 1011,6 hPa 0,0 l/m 6,8 km/h (2 Bft) SW 16,8 C 27,6 C
02.08.2012 12:00 26,0 C 57 % 1011,9 hPa 0,5 l/m 5,4 km/h (1 Bft) S-SO 16,7 C 26,0 C
02.08.2012 13:00 25,3 C 66 % 1012,0 hPa 0,0 l/m 6,8 km/h (2 Bft) S-SW 18,5 C 25,3 C
02.08.2012 14:00 27,2 C 58 % 1012,2 hPa 0,0 l/m 7,6 km/h (2 Bft) S-SW 18,3 C 27,2 C
02.08.2012 15:00 28,8 C 53 % 1012,2 hPa 0,0 l/m 8,9 km/h (2 Bft) W-SW 18,2 C 28,8 C
02.08.2012 16:00 28,6 C 52 % 1011,9 hPa 0,0 l/m 6,6 km/h (2 Bft) W-SW 17,7 C 28,6 C
02.08.2012 17:00 26,3 C 59 % 1012,0 hPa 0,0 l/m 4,9 km/h (1 Bft) S-SW 17,5 C 26,3 C
02.08.2012 18:00 24,2 C 73 % 1012,5 hPa 1,0 l/m 3,2 km/h (1 Bft) S 19,0 C 24,2 C
02.08.2012 19:00 24,4 C 71 % 1012,6 hPa 0,0 l/m 8,7 km/h (2 Bft) W-SW 18,8 C 24,4 C
02.08.2012 20:00 23,1 C 63 % 1013,2 hPa 0,0 l/m 6,0 km/h (2 Bft) W 15,7 C 23,1 C
02.08.2012 21:00 21,8 C 64 % 1014,0 hPa 0,0 l/m 2,8 km/h (1 Bft) W 14,7 C 21,8 C
02.08.2012 22:00 21,2 C 67 % 1014,4 hPa 0,0 l/m 2,0 km/h (1 Bft) W 14,8 C 21,2 C
02.08.2012 23:00 20,5 C 69 % 1014,7 hPa 0,0 l/m 0,9 km/h (0 Bft) W 14,7 C 20,5 C
03.08.2012 00:00 19,3 C 73 % 1015,0 hPa 0,0 l/m 0,5 km/h (0 Bft) NW 14,3 C 19,3 C
03.08.2012 01:00 18,8 C 78 % 1015,1 hPa 0,0 l/m 0,5 km/h (0 Bft) N-NW 14,8 C 18,8 C
03.08.2012 02:00 18,5 C 79 % 1015,7 hPa 0,0 l/m 1,0 km/h (0 Bft) NW 14,8 C 18,5 C
03.08.2012 03:00 18,2 C 82 % 1015,8 hPa 0,0 l/m 0,9 km/h (0 Bft) W 15,1 C 18,2 C
03.08.2012 04:00 18,2 C 83 % 1015,8 hPa 0,0 l/m 0,4 km/h (0 Bft) W-NW 15,2 C 18,2 C
03.08.2012 05:00 17,8 C 84 % 1016,0 hPa 0,0 l/m 0,6 km/h (0 Bft) W 15,1 C 17,8 C
03.08.2012 06:00 17,6 C 86 % 1015,8 hPa 0,0 l/m 2,1 km/h (1 Bft) W-NW 15,2 C 17,6 C
03.08.2012 07:00 18,0 C 86 % 1016,2 hPa 0,0 l/m 1,1 km/h (1 Bft) S 15,7 C 18,0 C
03.08.2012 08:00 18,9 C 84 % 1016,6 hPa 0,0 l/m 0,7 km/h (0 Bft) SW 16,2 C 18,9 C
03.08.2012 09:00 19,4 C 83 % 1016,9 hPa 0,0 l/m 0,7 km/h (0 Bft) N-NO 16,4 C 19,4 C
03.08.2012 10:00 20,5 C 78 % 1016,8 hPa 0,0 l/m 1,6 km/h (1 Bft) N 16,4 C 20,5 C
03.08.2012 11:00 22,7 C 66 % 1017,0 hPa 0,0 l/m 1,4 km/h (1 Bft) W-SW 15,9 C 22,7 C
03.08.2012 12:00 24,0 C 56 % 1017,1 hPa 0,0 l/m 2,0 km/h (1 Bft) S 14,6 C 24,0 C
03.08.2012 13:00 25,4 C 51 % 1016,8 hPa 0,0 l/m 1,7 km/h (1 Bft) S 14,6 C 25,4 C
03.08.2012 14:00 24,3 C 53 % 1016,6 hPa 0,0 l/m 1,9 km/h (1 Bft) W-SW 14,0 C 24,3 C
03.08.2012 15:00 26,3 C 47 % 1016,1 hPa 0,0 l/m 3,1 km/h (1 Bft) S-SW 13,9 C 26,3 C
03.08.2012 16:00 27,1 C 43 % 1015,6 hPa 0,0 l/m 5,9 km/h (2 Bft) SO 13,3 C 27,1 C
03.08.2012 17:00 26,5 C 47 % 1015,3 hPa 0,0 l/m 5,7 km/h (1 Bft) SO 14,1 C 26,5 C
03.08.2012 18:00 25,8 C 49 % 1015,3 hPa 0,0 l/m 7,2 km/h (2 Bft) S-SW 14,1 C 25,8 C
03.08.2012 19:00 24,0 C 53 % 1015,1 hPa 0,0 l/m 4,7 km/h (1 Bft) S-SO 13,6 C 24,0 C
03.08.2012 20:00 22,3 C 60 % 1015,4 hPa 0,0 l/m 2,7 km/h (1 Bft) S 14,1 C 22,3 C
03.08.2012 21:00 20,9 C 66 % 1016,1 hPa 0,0 l/m 2,3 km/h (1 Bft) N-NO 14,2 C 20,9 C
03.08.2012 22:00 19,2 C 69 % 1016,3 hPa 0,0 l/m 3,1 km/h (1 Bft) N-NO 13,5 C 19,2 C
03.08.2012 23:00 18,9 C 71 % 1016,1 hPa 0,0 l/m 2,2 km/h (1 Bft) SO 13,6 C 18,9 C
04.08.2012 00:00 18,6 C 73 % 1016,1 hPa 0,0 l/m 1,3 km/h (1 Bft) SO 13,6 C 18,6 C
04.08.2012 01:00 18,1 C 75 % 1015,9 hPa 0,0 l/m 2,0 km/h (1 Bft) O-SO 13,6 C 18,1 C
04.08.2012 02:00 17,5 C 78 % 1015,8 hPa 0,0 l/m 0,2 km/h (0 Bft) N-NO 13,6 C 17,5 C
04.08.2012 03:00 16,7 C 81 % 1015,6 hPa 0,0 l/m 0,3 km/h (0 Bft) N-NO 13,4 C 16,7 C
04.08.2012 04:00 16,1 C 82 % 1015,5 hPa 0,0 l/m 0,5 km/h (0 Bft) N 13,0 C 16,1 C
04.08.2012 05:00 15,1 C 84 % 1015,6 hPa 0,0 l/m 0,1 km/h (0 Bft) NW 12,5 C 15,1 C
04.08.2012 06:00 16,3 C 85 % 1015,6 hPa 0,0 l/m 0,0 km/h (0 Bft) N 13,7 C 16,3 C
04.08.2012 07:00 19,9 C 73 % 1015,7 hPa 0,0 l/m 0,0 km/h (0 Bft) N 15,0 C 19,9 C
04.08.2012 08:00 21,2 C 69 % 1015,6 hPa 0,0 l/m 0,5 km/h (0 Bft) SW 15,4 C 21,2 C
04.08.2012 09:00 22,3 C 65 % 1015,5 hPa 0,0 l/m 1,4 km/h (1 Bft) S 15,3 C 22,3 C
04.08.2012 10:00 23,9 C 57 % 1015,4 hPa 0,0 l/m 3,1 km/h (1 Bft) O-SO 14,7 C 23,9 C
04.08.2012 11:00 25,6 C 51 % 1015,1 hPa 0,0 l/m 4,0 km/h (1 Bft) SW 14,7 C 25,6 C
04.08.2012 12:00 26,9 C 45 % 1014,7 hPa 0,0 l/m 3,7 km/h (1 Bft) S-SW 14,0 C 26,9 C
04.08.2012 13:00 27,6 C 42 % 1014,2 hPa 0,0 l/m 5,4 km/h (1 Bft) W-SW 13,5 C 27,6 C
04.08.2012 14:00 25,1 C 49 % 1014,0 hPa 0,0 l/m 9,2 km/h (2 Bft) W-SW 13,4 C 25,1 C
04.08.2012 15:00 26,4 C 47 % 1013,8 hPa 0,0 l/m 0,7 km/h (0 Bft) SO 14,0 C 26,4 C
04.08.2012 16:00 28,4 C 40 % 1013,1 hPa 0,0 l/m 6,8 km/h (2 Bft) S-SW 13,4 C 28,4 C
04.08.2012 17:00 26,2 C 45 % 1013,1 hPa 0,0 l/m 7,8 km/h (2 Bft) N-NO 13,1 C 26,2 C
04.08.2012 18:00 25,0 C 52 % 1013,0 hPa 0,0 l/m 4,7 km/h (1 Bft) NO 14,4 C 25,0 C
04.08.2012 19:00 24,1 C 55 % 1013,1 hPa 0,0 l/m 2,9 km/h (1 Bft) O-NO 14,4 C 24,1 C
04.08.2012 20:00 23,1 C 58 % 1013,4 hPa 0,0 l/m 3,2 km/h (1 Bft) O-NO 14,3 C 23,1 C
04.08.2012 21:00 21,2 C 64 % 1013,6 hPa 0,0 l/m 2,8 km/h (1 Bft) O 14,1 C 21,2 C
04.08.2012 22:00 19,8 C 66 % 1013,7 hPa 0,0 l/m 2,0 km/h (1 Bft) O-SO 13,3 C 19,8 C
04.08.2012 23:00 18,8 C 70 % 1013,8 hPa 0,0 l/m 2,0 km/h (1 Bft) O-SO 13,3 C 18,8 C
05.08.2012 00:00 17,8 C 75 % 1013,7 hPa 0,0 l/m 2,3 km/h (1 Bft) NO 13,3 C 17,8 C
05.08.2012 01:00 17,0 C 78 % 1013,3 hPa 0,0 l/m 3,1 km/h (1 Bft) O-NO 13,2 C 17,0 C
05.08.2012 02:00 16,6 C 81 % 1012,8 hPa 0,0 l/m 3,1 km/h (1 Bft) O 13,2 C 16,6 C
05.08.2012 03:00 16,0 C 84 % 1012,6 hPa 0,0 l/m 1,9 km/h (1 Bft) O-NO 13,2 C 16,0 C
05.08.2012 04:00 15,9 C 85 % 1012,4 hPa 0,0 l/m 3,0 km/h (1 Bft) O-NO 13,4 C 15,9 C
05.08.2012 05:00 15,6 C 88 % 1012,2 hPa 0,0 l/m 4,3 km/h (1 Bft) O-NO 13,6 C 15,6 C
05.08.2012 06:00 15,9 C 88 % 1012,3 hPa 0,0 l/m 0,8 km/h (0 Bft) N-NO 13,8 C 15,9 C
05.08.2012 07:00 17,8 C 84 % 1011,9 hPa 0,0 l/m 2,7 km/h (1 Bft) NO 15,1 C 17,8 C
05.08.2012 08:00 18,6 C 83 % 1011,8 hPa 0,0 l/m 3,9 km/h (1 Bft) O-NO 15,6 C 18,6 C
05.08.2012 09:00 18,9 C 83 % 1011,7 hPa 0,0 l/m 2,8 km/h (1 Bft) O-NO 15,9 C 18,9 C
05.08.2012 10:00 19,1 C 83 % 1011,8 hPa 0,0 l/m 3,5 km/h (1 Bft) O 16,2 C 19,1 C
05.08.2012 11:00 19,0 C 86 % 1012,7 hPa 2,1 l/m 4,6 km/h (1 Bft) S-SW 16,5 C 19,0 C
05.08.2012 12:00 18,9 C 87 % 1012,1 hPa 0,0 l/m 1,9 km/h (1 Bft) N-NO 16,7 C 18,9 C
05.08.2012 13:00 18,9 C 88 % 1012,0 hPa 0,5 l/m 3,1 km/h (1 Bft) O-NO 16,8 C 18,9 C
05.08.2012 14:00 19,6 C 88 % 1011,6 hPa 0,0 l/m 3,8 km/h (1 Bft) O-NO 17,5 C 19,6 C
05.08.2012 15:00 20,2 C 84 % 1011,6 hPa 0,0 l/m 1,5 km/h (1 Bft) NO 17,3 C 20,2 C
05.08.2012 16:00 20,7 C 81 % 1011,5 hPa 0,0 l/m 1,5 km/h (1 Bft) O-NO 17,4 C 20,7 C
05.08.2012 17:00 22,3 C 72 % 1011,2 hPa 0,0 l/m 4,7 km/h (1 Bft) O-NO 17,0 C 22,3 C
05.08.2012 18:00 22,4 C 72 % 1010,9 hPa 0,0 l/m 4,4 km/h (1 Bft) O-NO 17,2 C 22,4 C
05.08.2012 19:00 21,1 C 77 % 1010,6 hPa 0,0 l/m 1,7 km/h (1 Bft) O-NO 17,0 C 21,1 C
05.08.2012 20:00 20,1 C 81 % 1010,2 hPa 0,0 l/m 1,0 km/h (0 Bft) O-NO 16,8 C 20,1 C
05.08.2012 21:00 19,2 C 85 % 1010,5 hPa 0,0 l/m 1,2 km/h (1 Bft) O-NO 16,6 C 19,2 C
05.08.2012 22:00 18,5 C 88 % 1010,3 hPa 0,0 l/m 2,9 km/h (1 Bft) O-NO 16,4 C 18,5 C
05.08.2012 23:00 17,7 C 89 % 1010,1 hPa 0,0 l/m 2,8 km/h (1 Bft) O-NO 15,9 C 17,7 C
Min-Datum _ 31.07.12 01.08.12 05.08.12 - 30.07.12 - 30.07.12 31.07.12
_ Min-Zeit 05:51 16:31 23:51 - 03:21 - 20:11 05:51
Minimum _ 11,4 C 37 % 1009,9 hPa - 0,0 km/h (0 Bft) - 7,6 C 11,4 C
Max-Datum _ 02.08.12 05.08.12 31.07.12 05.08.12 30.07.12 - 02.08.12 02.08.12
_ Max-Zeit 16:11 23:36 23:06 11:16 12:16 - 18:56 16:11
Maximum _ 29,8 C 90 % 1019,7 hPa 2,1 l/m 36,0 km/h
W-SW (5 Bft)
- 19,5 C 29,8 C
Durchschnitt _ 20,2 C 66 % 1015,3 hPa #4,7 l/m 4,1 km/h (1 Bft) O-NO 13,2 C 20,2 C
(c) by David Heller